Time;durP1;ratioP1;P1;durP2;ratioP2;P2;SDS_P1;SDS_P2;PMS_P1;PMS_P2;Temp;Humidity;BMP_temperature;BMP_pressure;BME280_temperature;BME280_humidity;BME280_pressure;Samples;Min_cycle;Max_cycle;Signal;HPM_P1;HPM_P2
2021/09/23 00:00:16;;;;;;;27.27;15.37;;;;;;;-143.90;100.00;58478.06;5093037;28;20509;-74
2021/09/23 00:05:13;;;;;;;22.43;13.60;;;;;;;-143.90;100.00;58478.06;5092155;28;20426;-75
2021/09/23 00:07:40;;;;;;;25.80;15.57;;;;;;;-143.90;100.00;58478.06;5092332;28;20413;-76
2021/09/23 00:10:07;;;;;;;23.77;14.50;;;;;;;-143.90;100.00;58478.06;5092622;28;20421;-77
2021/09/23 00:12:34;;;;;;;23.17;13.50;;;;;;;-143.90;100.00;58478.06;5092021;28;20853;-75
2021/09/23 00:15:00;;;;;;;20.37;13.80;;;;;;;-143.90;100.00;58478.06;5092466;28;20483;-76
2021/09/23 00:17:26;;;;;;;27.83;15.30;;;;;;;-143.90;100.00;58478.06;5092295;28;20421;-72
2021/09/23 00:19:51;;;;;;;21.30;14.23;;;;;;;-143.90;100.00;58478.06;5092124;28;20424;-74
2021/09/23 00:22:17;;;;;;;22.97;14.40;;;;;;;-143.90;100.00;58478.06;5092158;28;20464;-76
2021/09/23 00:24:42;;;;;;;26.00;15.10;;;;;;;-143.90;100.00;58478.06;5091990;28;20652;-75
2021/09/23 00:27:08;;;;;;;22.23;14.90;;;;;;;-143.90;100.00;58478.06;5092078;28;20229;-73
2021/09/23 00:29:34;;;;;;;18.57;11.50;;;;;;;-143.90;100.00;58478.06;5092070;28;20177;-75
2021/09/23 00:31:59;;;;;;;26.20;13.07;;;;;;;-143.90;100.00;58478.06;5092451;28;20487;-75
2021/09/23 00:34:25;;;;;;;20.17;12.57;;;;;;;-143.90;100.00;58478.06;5091871;28;20171;-74
2021/09/23 00:36:50;;;;;;;21.50;13.60;;;;;;;-143.90;100.00;58478.06;5091775;28;20293;-75
2021/09/23 00:39:16;;;;;;;22.60;13.70;;;;;;;-143.90;100.00;58478.06;5091699;28;20259;-75
2021/09/23 00:41:41;;;;;;;18.17;11.60;;;;;;;-143.90;100.00;58478.06;5092163;28;20203;-75
2021/09/23 00:44:21;;;;;;;22.83;12.83;;;;;;;-143.90;100.00;58478.06;5091712;28;20176;-76
2021/09/23 00:46:49;;;;;;;21.07;12.63;;;;;;;-143.90;100.00;58478.06;5091947;28;20170;-75
2021/09/23 00:49:15;;;;;;;21.97;10.50;;;;;;;-143.90;100.00;58478.06;5092743;28;20433;-73
2021/09/23 00:51:42;;;;;;;19.23;12.20;;;;;;;-143.90;100.00;58478.06;5092354;28;20413;-73
2021/09/23 00:54:08;;;;;;;22.67;12.83;;;;;;;-143.90;100.00;58478.06;5080833;28;20892;-75
2021/09/23 00:56:34;;;;;;;17.97;12.60;;;;;;;-143.90;100.00;58478.06;5091515;28;20401;-75
2021/09/23 00:58:59;;;;;;;17.13;11.13;;;;;;;-143.90;100.00;58478.06;5092100;28;21263;-76
2021/09/23 01:01:25;;;;;;;21.13;11.17;;;;;;;-143.90;100.00;58478.06;5091428;28;20209;-75
2021/09/23 01:03:50;;;;;;;19.13;11.60;;;;;;;-143.90;100.00;58478.06;5091225;28;20171;-74
2021/09/23 01:06:16;;;;;;;29.50;12.90;;;;;;;-143.90;100.00;58478.06;5072535;28;20187;-74
2021/09/23 01:08:53;;;;;;;17.37;10.10;;;;;;;-143.90;100.00;58478.06;5090489;28;20179;-76
2021/09/23 01:11:18;;;;;;;22.40;12.83;;;;;;;-143.90;100.00;58478.06;5090900;28;20198;-79
2021/09/23 01:13:44;;;;;;;19.50;12.10;;;;;;;-143.90;100.00;58478.06;5091283;28;20797;-75
2021/09/23 01:16:12;;;;;;;18.40;12.03;;;;;;;-143.90;100.00;58478.06;5091578;28;20597;-77
2021/09/23 01:18:38;;;;;;;21.17;12.43;;;;;;;-143.90;100.00;58478.06;5091245;28;20178;-78
2021/09/23 01:21:05;;;;;;;23.07;12.90;;;;;;;-143.90;100.00;58478.06;5091392;28;20854;-75
2021/09/23 01:23:35;;;;;;;22.50;14.83;;;;;;;-143.90;100.00;58478.06;5091167;28;20432;-77
2021/09/23 01:26:00;;;;;;;20.73;12.80;;;;;;;-143.90;100.00;58478.06;5091840;28;20405;-76
2021/09/23 01:28:26;;;;;;;19.40;12.40;;;;;;;-143.90;100.00;58478.06;5089715;28;20428;-77
2021/09/23 01:30:51;;;;;;;18.37;11.07;;;;;;;-143.90;100.00;58478.06;5090525;28;20175;-73
2021/09/23 01:33:17;;;;;;;19.97;12.00;;;;;;;-143.90;100.00;58478.06;5090921;28;20232;-74
2021/09/23 01:35:42;;;;;;;25.73;11.70;;;;;;;-143.90;100.00;58478.06;5089855;28;20198;-75
2021/09/23 01:38:08;;;;;;;18.10;11.33;;;;;;;-143.90;100.00;58478.06;5090326;28;20227;-78
2021/09/23 01:40:36;;;;;;;18.47;10.73;;;;;;;-143.90;100.00;58478.06;5091051;28;20182;-78
2021/09/23 01:43:02;;;;;;;20.40;12.30;;;;;;;-143.90;100.00;58478.06;5090690;28;20630;-74
2021/09/23 01:45:27;;;;;;;23.73;12.40;;;;;;;-143.90;100.00;58478.06;5072542;28;20931;-77
2021/09/23 01:47:53;;;;;;;18.73;11.93;;;;;;;-143.90;100.00;58478.06;5090882;28;20263;-76
2021/09/23 01:50:19;;;;;;;19.57;11.80;;;;;;;-143.90;100.00;58478.06;5090323;28;20175;-78
2021/09/23 01:52:45;;;;;;;21.67;12.90;;;;;;;-143.90;100.00;58478.06;5090969;28;20578;-76
2021/09/23 01:55:11;;;;;;;21.40;13.70;;;;;;;-143.90;100.00;58478.06;5090423;28;20999;-74
2021/09/23 01:57:37;;;;;;;24.47;13.70;;;;;;;-143.90;100.00;58478.06;5091043;28;20228;-74
2021/09/23 02:00:03;;;;;;;18.60;12.37;;;;;;;-143.90;100.00;58478.06;5090402;28;21102;-75
2021/09/23 02:02:29;;;;;;;20.33;13.03;;;;;;;-143.90;100.00;58478.06;5090188;28;20203;-77
2021/09/23 02:04:54;;;;;;;19.67;12.40;;;;;;;-143.90;100.00;58478.06;5090420;28;20440;-79
2021/09/23 02:07:22;;;;;;;20.27;12.33;;;;;;;-143.90;100.00;58478.06;5072468;28;20186;-76
2021/09/23 02:09:47;;;;;;;16.13;11.60;;;;;;;-143.90;100.00;58478.06;5090458;28;20236;-79
2021/09/23 02:12:13;;;;;;;18.97;11.47;;;;;;;-143.90;100.00;58478.06;5090814;28;20791;-77
2021/09/23 02:14:39;;;;;;;20.30;11.57;;;;;;;-143.90;100.00;58478.06;5090379;28;20178;-77
2021/09/23 02:17:04;;;;;;;19.90;11.70;;;;;;;-143.90;100.00;58478.06;5090394;28;20178;-78
2021/09/23 02:19:30;;;;;;;19.73;10.90;;;;;;;-143.90;100.00;58478.06;5089911;28;20419;-75
2021/09/23 02:21:55;;;;;;;17.17;11.43;;;;;;;-143.90;100.00;58478.06;5089722;28;20244;-75
2021/09/23 02:24:21;;;;;;;17.20;11.10;;;;;;;-143.90;100.00;58478.06;5089962;28;20556;-76
2021/09/23 02:26:46;;;;;;;17.90;10.07;;;;;;;-143.90;100.00;58478.06;5090655;28;20164;-76
2021/09/23 02:29:12;;;;;;;17.30;10.47;;;;;;;-143.90;100.00;58478.06;5089964;28;20599;-78
2021/09/23 02:31:38;;;;;;;18.03;11.87;;;;;;;-143.90;100.00;58478.06;5089571;28;20176;-76
2021/09/23 02:34:03;;;;;;;20.20;10.90;;;;;;;-143.90;100.00;58478.06;5090186;28;20617;-78
2021/09/23 02:36:29;;;;;;;23.43;11.00;;;;;;;-143.90;100.00;58478.06;5090141;28;20151;-76
2021/09/23 02:38:54;;;;;;;15.43;9.90;;;;;;;-143.90;100.00;58478.06;5089644;28;20324;-77
2021/09/23 02:41:20;;;;;;;17.13;10.80;;;;;;;-143.90;100.00;58478.06;5088948;28;20184;-77
2021/09/23 02:43:45;;;;;;;15.93;10.27;;;;;;;-143.90;100.00;58478.06;5090053;28;20517;-76
2021/09/23 02:46:10;;;;;;;25.40;12.30;;;;;;;-143.90;100.00;58478.06;5089518;28;20176;-78
2021/09/23 02:48:36;;;;;;;18.73;10.40;;;;;;;-143.90;100.00;58478.06;5089918;28;20537;-77
2021/09/23 02:51:02;;;;;;;15.07;10.03;;;;;;;-143.90;100.00;58478.06;5089934;28;20174;-78
2021/09/23 02:53:27;;;;;;;17.20;9.77;;;;;;;-143.90;100.00;58478.06;5089719;28;20293;-76
2021/09/23 02:55:53;;;;;;;14.10;8.90;;;;;;;-143.90;100.00;58478.06;5089966;28;20174;-78
2021/09/23 02:58:18;;;;;;;19.30;9.70;;;;;;;-143.90;100.00;58478.06;5090193;28;20187;-79
2021/09/23 03:00:44;;;;;;;13.47;9.17;;;;;;;-143.90;100.00;58478.06;5089683;28;20203;-77
2021/09/23 03:03:14;;;;;;;14.90;9.87;;;;;;;-143.90;100.00;58478.06;5089241;28;20249;-76
2021/09/23 03:05:39;;;;;;;18.00;9.77;;;;;;;-143.90;100.00;58478.06;5090234;28;20164;-77
2021/09/23 03:08:05;;;;;;;17.03;10.17;;;;;;;-143.90;100.00;58478.06;5090021;28;20900;-77
2021/09/23 03:10:30;;;;;;;14.30;8.57;;;;;;;-143.90;100.00;58478.06;5089859;28;20183;-76
2021/09/23 03:12:56;;;;;;;17.27;9.87;;;;;;;-143.90;100.00;58478.06;5089571;28;20255;-77
2021/09/23 03:15:21;;;;;;;18.40;9.43;;;;;;;-143.90;100.00;58478.06;5089846;28;20164;-75
2021/09/23 03:17:47;;;;;;;15.03;9.67;;;;;;;-143.90;100.00;58478.06;5089311;28;20248;-78
2021/09/23 03:20:14;;;;;;;19.17;9.20;;;;;;;-143.90;100.00;58478.06;5089844;28;20197;-77
2021/09/23 03:22:39;;;;;;;17.83;9.10;;;;;;;-143.90;100.00;58478.06;5089880;28;20665;-76
2021/09/23 03:25:05;;;;;;;16.53;8.40;;;;;;;-143.90;100.00;58478.06;5089302;28;20422;-78
2021/09/23 03:27:31;;;;;;;13.90;8.47;;;;;;;-143.90;100.00;58478.06;5089411;28;20186;-76
2021/09/23 03:29:56;;;;;;;13.90;9.00;;;;;;;-143.90;100.00;58478.06;5090176;28;20410;-76
2021/09/23 03:32:22;;;;;;;12.60;8.07;;;;;;;-143.90;100.00;58478.06;5093583;28;20179;-75
2021/09/23 03:34:47;;;;;;;12.53;8.57;;;;;;;-143.90;100.00;58478.06;5093443;28;20160;-77
2021/09/23 03:37:13;;;;;;;18.00;8.73;;;;;;;-143.90;100.00;58478.06;5092566;28;20246;-75
2021/09/23 03:39:38;;;;;;;16.53;8.43;;;;;;;-143.90;100.00;58478.06;5093161;28;20174;-78
2021/09/23 03:42:04;;;;;;;16.33;8.57;;;;;;;-143.90;100.00;58478.06;5093054;28;20291;-75
2021/09/23 03:44:30;;;;;;;13.53;8.93;;;;;;;-143.90;100.00;58478.06;5093521;28;20167;-75
2021/09/23 03:46:55;;;;;;;14.73;8.87;;;;;;;-143.90;100.00;58478.06;5093026;28;20167;-76
2021/09/23 03:49:22;;;;;;;16.63;8.80;;;;;;;-143.90;100.00;58478.06;5093108;28;20237;-76
2021/09/23 03:51:48;;;;;;;12.57;6.93;;;;;;;-143.90;100.00;58478.06;5093370;28;20167;-77
2021/09/23 03:54:13;;;;;;;16.37;8.00;;;;;;;-143.90;100.00;58478.06;5092778;28;20938;-74
2021/09/23 03:56:39;;;;;;;13.53;7.50;;;;;;;-143.90;100.00;58478.06;5092598;28;20175;-77
2021/09/23 03:59:04;;;;;;;15.63;8.30;;;;;;;-143.90;100.00;58478.06;5092874;28;20718;-75
2021/09/23 04:01:30;;;;;;;12.40;7.73;;;;;;;-143.90;100.00;58478.06;5091479;28;20689;-75
2021/09/23 04:03:55;;;;;;;11.03;7.30;;;;;;;-143.90;100.00;58478.06;5092348;28;20199;-78
2021/09/23 04:06:21;;;;;;;11.73;7.30;;;;;;;-143.90;100.00;58478.06;5092993;28;20195;-74
2021/09/23 04:08:46;;;;;;;11.97;6.40;;;;;;;-143.90;100.00;58478.06;5092128;28;20155;-74
2021/09/23 04:11:12;;;;;;;10.97;6.60;;;;;;;-143.90;100.00;58478.06;5092329;28;20196;-76
2021/09/23 04:13:38;;;;;;;11.27;7.00;;;;;;;-143.90;100.00;58478.06;5100559;28;20667;-76
2021/09/23 04:16:04;;;;;;;11.43;7.50;;;;;;;-143.90;100.00;58478.06;5092510;28;20163;-75
2021/09/23 04:18:29;;;;;;;11.40;6.33;;;;;;;-143.90;100.00;58478.06;5092426;28;20432;-75
2021/09/23 04:20:55;;;;;;;10.17;5.70;;;;;;;-143.90;100.00;58478.06;5092257;28;20672;-75
2021/09/23 04:23:20;;;;;;;10.10;7.10;;;;;;;-143.90;100.00;58478.06;5091232;28;20683;-76
2021/09/23 04:25:46;;;;;;;10.33;6.53;;;;;;;-143.90;100.00;58478.06;5092446;28;20178;-75
2021/09/23 04:28:11;;;;;;;12.03;6.27;;;;;;;-143.90;100.00;58478.06;5091654;28;20528;-78
2021/09/23 04:30:37;;;;;;;11.10;6.70;;;;;;;-143.90;100.00;58478.06;5091616;28;20179;-75
2021/09/23 04:33:03;;;;;;;12.90;6.83;;;;;;;-143.90;100.00;58478.06;5091133;28;20586;-77
2021/09/23 04:35:28;;;;;;;9.80;6.77;;;;;;;-143.90;100.00;58478.06;5092398;28;20174;-78
2021/09/23 04:37:54;;;;;;;11.40;6.50;;;;;;;-143.90;100.00;58478.06;5091692;28;21161;-75
2021/09/23 04:40:19;;;;;;;10.57;6.50;;;;;;;-143.90;100.00;58478.06;5091923;28;20178;-78
2021/09/23 04:42:45;;;;;;;7.73;5.10;;;;;;;-143.90;100.00;58478.06;5090274;28;20192;-75
2021/09/23 04:45:11;;;;;;;10.40;6.23;;;;;;;-143.90;100.00;58478.06;5091821;28;20429;-77
2021/09/23 04:47:37;;;;;;;11.47;6.23;;;;;;;-143.90;100.00;58478.06;5091978;28;20205;-74
2021/09/23 04:50:03;;;;;;;9.40;6.10;;;;;;;-143.90;100.00;58478.06;5091893;28;20409;-75
2021/09/23 04:52:29;;;;;;;12.50;5.50;;;;;;;-143.90;100.00;58478.06;5091922;28;20312;-76
2021/09/23 04:54:54;;;;;;;9.60;6.00;;;;;;;-143.90;100.00;58478.06;5091174;28;20935;-77
2021/09/23 04:57:20;;;;;;;8.70;5.80;;;;;;;-143.90;100.00;58478.06;5091771;28;20229;-77
2021/09/23 04:59:45;;;;;;;8.70;6.00;;;;;;;-143.90;100.00;58478.06;5091412;28;20616;-77
2021/09/23 05:02:11;;;;;;;16.80;8.53;;;;;;;-143.90;100.00;58478.06;5091367;28;20222;-77
2021/09/23 05:04:36;;;;;;;9.57;5.97;;;;;;;-143.90;100.00;58478.06;5091350;28;20172;-76
2021/09/23 05:07:02;;;;;;;8.13;5.30;;;;;;;-143.90;100.00;58478.06;5091120;28;20295;-76
2021/09/23 05:09:30;;;;;;;10.00;5.57;;;;;;;-143.90;100.00;58478.06;5092320;28;20795;-75
2021/09/23 05:11:56;;;;;;;10.43;5.00;;;;;;;-143.90;100.00;58478.06;5091443;28;20187;-73
2021/09/23 05:14:21;;;;;;;10.50;6.00;;;;;;;-143.90;100.00;58478.06;5090662;28;20429;-78
2021/09/23 05:16:47;;;;;;;9.00;5.20;;;;;;;-143.90;100.00;58478.06;5089984;28;20618;-77
2021/09/23 05:19:12;;;;;;;8.60;5.27;;;;;;;-143.90;100.00;58478.06;5092892;28;20171;-74
2021/09/23 05:21:38;;;;;;;8.77;5.90;;;;;;;-143.90;100.00;58478.06;5091364;28;20203;-74
2021/09/23 05:24:04;;;;;;;10.50;6.07;;;;;;;-143.90;100.00;58478.06;5091786;28;20168;-75
2021/09/23 05:26:30;;;;;;;10.80;6.17;;;;;;;-143.90;100.00;58478.06;5091172;28;20404;-75
2021/09/23 05:28:55;;;;;;;8.93;5.47;;;;;;;-143.90;100.00;58478.06;5090704;28;20421;-75
2021/09/23 05:31:21;;;;;;;7.83;5.30;;;;;;;-143.90;100.00;58478.06;5089845;28;20244;-75
2021/09/23 05:33:47;;;;;;;9.17;5.57;;;;;;;-143.90;100.00;58478.06;5095342;28;20175;-72
2021/09/23 05:36:14;;;;;;;16.53;5.77;;;;;;;-143.90;100.00;58478.06;5090651;28;20232;-74
2021/09/23 05:38:39;;;;;;;8.20;4.80;;;;;;;-143.90;100.00;58478.06;5090151;28;20398;-71
2021/09/23 05:41:05;;;;;;;9.73;5.60;;;;;;;-143.90;100.00;58478.06;5090150;28;20448;-73
2021/09/23 05:43:31;;;;;;;7.60;4.20;;;;;;;-143.90;100.00;58478.06;5096006;28;20188;-73
2021/09/23 05:45:58;;;;;;;11.63;5.30;;;;;;;-143.90;100.00;58478.06;5090196;28;20839;-72
2021/09/23 05:48:24;;;;;;;9.90;5.03;;;;;;;-143.90;100.00;58478.06;5090478;28;20188;-73
2021/09/23 05:50:49;;;;;;;6.90;4.43;;;;;;;-143.90;100.00;58478.06;5072021;28;21356;-75
2021/09/23 05:53:15;;;;;;;7.90;5.43;;;;;;;-143.90;100.00;58478.06;5092446;28;20424;-74
2021/09/23 05:55:41;;;;;;;7.80;4.30;;;;;;;-143.90;100.00;58478.06;5072575;28;20215;-75
2021/09/23 05:58:06;;;;;;;7.23;4.20;;;;;;;-143.90;100.00;58478.06;5106688;28;20611;-75
2021/09/23 06:00:32;;;;;;;11.03;5.43;;;;;;;-143.90;100.00;58478.06;5093480;28;20542;-76
2021/09/23 06:02:58;;;;;;;7.77;4.57;;;;;;;-143.90;100.00;58478.06;5084478;28;20222;-77
2021/09/23 06:05:23;;;;;;;6.20;3.73;;;;;;;-143.90;100.00;58478.06;5086786;28;20514;-74
2021/09/23 06:07:49;;;;;;;9.13;4.40;;;;;;;-143.90;100.00;58478.06;5092987;28;20247;-69
2021/09/23 06:10:21;;;;;;;11.50;4.17;;;;;;;-143.90;100.00;58478.06;5096833;28;20168;-72
2021/09/23 06:13:02;;;;;;;6.30;4.00;;;;;;;-143.90;100.00;58478.06;5091176;28;20186;-73
2021/09/23 06:15:33;;;;;;;8.80;5.20;;;;;;;-143.90;100.00;58478.06;5086305;28;20497;-71
2021/09/23 06:17:58;;;;;;;8.63;4.87;;;;;;;-143.90;100.00;58478.06;5072471;28;20428;-75
2021/09/23 06:20:24;;;;;;;9.03;5.10;;;;;;;-143.90;100.00;58478.06;5090268;28;20491;-72
2021/09/23 06:22:51;;;;;;;7.40;4.97;;;;;;;-143.90;100.00;58478.06;5100769;28;20191;-72
2021/09/23 06:25:18;;;;;;;9.37;5.57;;;;;;;-143.90;100.00;58478.06;5090784;28;20181;-72
2021/09/23 06:27:44;;;;;;;6.90;4.43;;;;;;;-143.90;100.00;58478.06;5090851;28;20424;-71
2021/09/23 06:30:13;;;;;;;9.53;4.70;;;;;;;-143.90;100.00;58478.06;5078274;28;20410;-71
2021/09/23 06:32:42;;;;;;;8.77;4.77;;;;;;;-143.90;100.00;58478.06;5095838;28;20441;-73
2021/09/23 06:35:08;;;;;;;8.57;5.30;;;;;;;-143.90;100.00;58478.06;5103425;28;20432;-73
2021/09/23 06:37:34;;;;;;;7.50;4.00;;;;;;;-143.90;100.00;58478.06;5091153;28;21032;-73
2021/09/23 06:39:59;;;;;;;8.40;4.57;;;;;;;-143.90;100.00;58478.06;5090133;28;20532;-75
2021/09/23 06:42:25;;;;;;;8.23;4.83;;;;;;;-143.90;100.00;58478.06;5078330;28;20222;-74
2021/09/23 06:44:50;;;;;;;7.20;5.00;;;;;;;-143.90;100.00;58478.06;5085895;28;20176;-74
2021/09/23 06:47:16;;;;;;;8.07;4.10;;;;;;;-143.90;100.00;58478.06;5068513;28;20192;-73
2021/09/23 06:49:42;;;;;;;8.10;4.37;;;;;;;-143.90;100.00;58478.06;5073238;28;20172;-73
2021/09/23 06:52:07;;;;;;;9.20;4.60;;;;;;;-143.90;100.00;58478.06;5072978;28;20249;-74
2021/09/23 06:54:33;;;;;;;6.77;4.43;;;;;;;-143.90;100.00;58478.06;5083292;28;20460;-76
2021/09/23 06:56:59;;;;;;;9.47;5.00;;;;;;;-143.90;100.00;58478.06;5089541;28;20271;-74
2021/09/23 06:59:24;;;;;;;8.13;4.40;;;;;;;-143.90;100.00;58478.06;5089743;28;20175;-75
2021/09/23 07:01:50;;;;;;;9.87;4.73;;;;;;;-143.90;100.00;58478.06;5089281;28;20387;-74
2021/09/23 07:04:15;;;;;;;8.90;5.10;;;;;;;-143.90;100.00;58478.06;5091148;28;20163;-75
2021/09/23 07:06:41;;;;;;;8.33;4.33;;;;;;;-143.90;100.00;58478.06;5091909;28;20187;-74
2021/09/23 07:09:08;;;;;;;7.80;4.00;;;;;;;-143.90;100.00;58478.06;5089696;28;20167;-73
2021/09/23 07:11:34;;;;;;;7.77;3.80;;;;;;;-143.90;100.00;58478.06;5072638;28;20472;-75
2021/09/23 07:14:00;;;;;;;9.00;5.40;;;;;;;-143.90;100.00;58478.06;5076141;28;20928;-72
2021/09/23 07:16:25;;;;;;;8.00;3.70;;;;;;;-143.90;100.00;58478.06;5072011;28;20492;-74
2021/09/23 07:18:51;;;;;;;6.10;3.83;;;;;;;-143.90;100.00;58478.06;5069933;28;20160;-76
2021/09/23 07:21:16;;;;;;;8.23;4.60;;;;;;;-143.90;100.00;58478.06;5072073;28;20247;-74
2021/09/23 07:23:42;;;;;;;6.40;3.87;;;;;;;-143.90;100.00;58478.06;5086116;28;20179;-74
2021/09/23 07:26:08;;;;;;;5.97;3.50;;;;;;;-143.90;100.00;58478.06;5093719;28;20171;-78
2021/09/23 07:28:33;;;;;;;7.30;3.60;;;;;;;-143.90;100.00;58478.06;5093935;28;20174;-73
2021/09/23 07:30:59;;;;;;;12.57;3.83;;;;;;;-143.90;100.00;58478.06;5093392;28;20553;-73
2021/09/23 07:33:24;;;;;;;5.50;2.80;;;;;;;-143.90;100.00;58478.06;5096888;28;20317;-75
2021/09/23 07:35:51;;;;;;;5.77;3.23;;;;;;;-143.90;100.00;58478.06;5094488;28;20198;-76
2021/09/23 07:38:17;;;;;;;6.37;3.60;;;;;;;-143.90;100.00;58478.06;5104199;28;20592;-74
2021/09/23 07:40:42;;;;;;;6.30;2.90;;;;;;;-143.90;100.00;58478.06;5092745;28;20434;-74
2021/09/23 07:43:08;;;;;;;6.20;3.30;;;;;;;-143.90;100.00;58478.06;5091826;28;20195;-76
2021/09/23 07:45:34;;;;;;;6.30;3.50;;;;;;;-143.90;100.00;58478.06;5091827;28;20182;-76
2021/09/23 07:47:59;;;;;;;7.90;3.93;;;;;;;-143.90;100.00;58478.06;5092628;28;20668;-76
2021/09/23 07:50:25;;;;;;;8.67;4.40;;;;;;;-143.90;100.00;58478.06;5092889;28;20171;-75
2021/09/23 07:52:50;;;;;;;6.23;3.30;;;;;;;-143.90;100.00;58478.06;5092723;28;20261;-75
2021/09/23 07:55:16;;;;;;;7.07;3.80;;;;;;;-143.90;100.00;58478.06;5092281;28;20601;-75
2021/09/23 07:57:42;;;;;;;10.67;4.70;;;;;;;-143.90;100.00;58478.06;5092633;28;20184;-77
2021/09/23 08:00:08;;;;;;;8.00;4.17;;;;;;;-143.90;100.00;58478.06;5092529;28;20172;-76
2021/09/23 08:02:33;;;;;;;8.80;4.60;;;;;;;-143.90;100.00;58478.06;5092222;28;20574;-74
2021/09/23 08:04:59;;;;;;;10.80;4.77;;;;;;;-143.90;100.00;58478.06;5092314;28;20941;-75
2021/09/23 08:07:24;;;;;;;7.60;3.67;;;;;;;-143.90;100.00;58478.06;5092590;28;20225;-80
2021/09/23 08:09:50;;;;;;;7.97;3.80;;;;;;;-143.90;100.00;58478.06;5092963;28;20263;-77
2021/09/23 08:12:15;;;;;;;10.87;4.70;;;;;;;-143.90;100.00;58478.06;5092279;28;20168;-78
2021/09/23 08:14:41;;;;;;;8.33;3.30;;;;;;;-143.90;100.00;58478.06;5093043;28;20641;-79
2021/09/23 08:17:07;;;;;;;6.43;3.03;;;;;;;-143.90;100.00;58478.06;5091996;28;20195;-76
2021/09/23 08:19:35;;;;;;;6.33;3.43;;;;;;;-143.90;100.00;58478.06;5092841;28;20172;-78
2021/09/23 08:22:03;;;;;;;8.67;3.03;;;;;;;-143.90;100.00;58478.06;5092544;28;20199;-76
2021/09/23 08:24:28;;;;;;;9.57;3.97;;;;;;;-143.90;100.00;58478.06;5091838;28;20413;-77
2021/09/23 08:26:54;;;;;;;6.10;2.70;;;;;;;-143.90;100.00;58478.06;5091410;28;20847;-79
2021/09/23 08:29:19;;;;;;;6.33;3.30;;;;;;;-143.90;100.00;58478.06;5077872;28;20307;-74
2021/09/23 08:31:45;;;;;;;5.27;2.70;;;;;;;-143.90;100.00;58478.06;5091430;28;20658;-75
2021/09/23 08:34:12;;;;;;;6.80;3.53;;;;;;;-143.90;100.00;58478.06;5091831;28;20183;-84
2021/09/23 08:36:38;;;;;;;6.40;2.90;;;;;;;-143.90;100.00;58478.06;5091814;28;20493;-76
2021/09/23 08:39:03;;;;;;;6.80;3.47;;;;;;;-143.90;100.00;58478.06;5092711;28;20859;-77
2021/09/23 08:41:30;;;;;;;6.83;3.23;;;;;;;-143.90;100.00;58478.06;5091965;28;20207;-74
2021/09/23 08:43:56;;;;;;;6.07;3.17;;;;;;;-143.90;100.00;58478.06;5074260;28;20183;-80
2021/09/23 08:46:22;;;;;;;7.00;3.73;;;;;;;-143.90;100.00;58478.06;5091455;28;20414;-72
2021/09/23 08:48:48;;;;;;;7.00;2.77;;;;;;;-143.90;100.00;58478.06;5091929;28;20189;-82
2021/09/23 08:51:14;;;;;;;5.27;2.53;;;;;;;-143.90;100.00;58478.06;5092232;28;20613;-80
2021/09/23 08:53:40;;;;;;;5.40;2.83;;;;;;;-143.90;100.00;58478.06;5092190;28;20646;-81
2021/09/23 08:56:11;;;;;;;6.00;2.90;;;;;;;-143.90;100.00;58478.06;5092632;28;20159;-79
2021/09/23 08:58:38;;;;;;;7.00;3.47;;;;;;;-143.90;100.00;58478.06;5092212;28;20467;-77
2021/09/23 09:01:08;;;;;;;5.73;2.40;;;;;;;-143.90;100.00;58478.06;5091857;28;20943;-78
2021/09/23 09:03:35;;;;;;;5.40;2.10;;;;;;;-143.90;100.00;58478.06;5091023;28;20496;-82
2021/09/23 09:06:07;;;;;;;5.83;2.90;;;;;;;-143.90;100.00;58478.06;5090739;28;20424;-73
2021/09/23 09:08:34;;;;;;;5.80;2.33;;;;;;;-143.90;100.00;58478.06;5076734;28;20420;-72
2021/09/23 09:11:05;;;;;;;4.53;2.27;;;;;;;-143.90;100.00;58478.06;5091740;28;20393;-81
2021/09/23 09:13:36;;;;;;;4.50;2.30;;;;;;;-143.90;100.00;58478.06;5091057;28;21073;-76
2021/09/23 09:16:16;;;;;;;4.40;2.60;;;;;;;-143.90;100.00;58478.06;5091225;28;20757;-77
2021/09/23 09:18:44;;;;;;;5.10;2.50;;;;;;;-143.90;100.00;58478.06;5090822;28;20488;-79
2021/09/23 09:21:12;;;;;;;5.10;2.60;;;;;;;-143.90;100.00;58478.06;5090341;28;20421;-72
2021/09/23 09:24:02;;;;;;;4.47;1.90;;;;;;;-143.90;100.00;58478.06;5091341;28;20476;-80
2021/09/23 09:26:37;;;;;;;5.40;2.47;;;;;;;-143.90;100.00;58478.06;5091662;28;20921;-82
2021/09/23 09:29:06;;;;;;;4.93;2.37;;;;;;;-143.90;100.00;58478.06;5090620;28;20398;-77
2021/09/23 09:31:33;;;;;;;5.43;2.20;;;;;;;-143.90;100.00;58478.06;5091005;28;20398;-76
2021/09/23 09:34:00;;;;;;;5.37;2.80;;;;;;;-143.90;100.00;58478.06;5090098;28;20422;-82
2021/09/23 09:36:36;;;;;;;7.77;3.23;;;;;;;-143.90;100.00;58478.06;5090240;28;20420;-82
2021/09/23 09:39:25;;;;;;;5.20;2.80;;;;;;;-143.90;100.00;58478.06;5088762;28;20421;-76
2021/09/23 09:41:52;;;;;;;4.77;2.70;;;;;;;-143.90;100.00;58478.06;5077527;28;20473;-74
2021/09/23 09:44:19;;;;;;;4.47;2.20;;;;;;;-143.90;100.00;58478.06;5090970;28;20442;-71
2021/09/23 09:46:49;;;;;;;8.50;3.67;;;;;;;-143.90;100.00;58478.06;5072477;28;20522;-75
2021/09/23 09:49:16;;;;;;;4.27;2.03;;;;;;;-143.90;100.00;58478.06;5098242;28;20416;-80
2021/09/23 09:51:49;;;;;;;4.03;2.07;;;;;;;-143.90;100.00;58478.06;5090483;28;20444;-80
2021/09/23 09:54:16;;;;;;;4.20;2.07;;;;;;;-143.90;100.00;58478.06;5090250;28;20413;-75
2021/09/23 09:56:44;;;;;;;4.70;2.10;;;;;;;-143.90;100.00;58478.06;5090817;28;20411;-78
2021/09/23 09:59:18;;;;;;;6.37;2.60;;;;;;;-143.90;100.00;58478.06;5100321;28;20417;-74
2021/09/23 10:01:46;;;;;;;5.00;2.17;;;;;;;-143.90;100.00;58478.06;5095172;28;21008;-78
2021/09/23 10:04:13;;;;;;;4.77;2.20;;;;;;;-143.90;100.00;58478.06;5089824;28;20428;-72
2021/09/23 10:06:41;;;;;;;13.73;2.23;;;;;;;-143.90;100.00;58478.06;5088693;28;20412;-75
2021/09/23 10:09:09;;;;;;;12.53;2.60;;;;;;;-143.90;100.00;58478.06;5077658;28;20437;-76
2021/09/23 10:11:36;;;;;;;5.80;2.10;;;;;;;-143.90;100.00;58478.06;5090556;28;20418;-76
2021/09/23 10:14:03;;;;;;;4.60;2.10;;;;;;;-143.90;100.00;58478.06;5082618;28;20410;-81
2021/09/23 10:16:29;;;;;;;5.77;1.90;;;;;;;-143.90;100.00;58478.06;5069944;28;20809;-78
2021/09/23 10:18:57;;;;;;;4.40;2.00;;;;;;;-143.90;100.00;58478.06;5088571;28;20414;-74
2021/09/23 10:21:24;;;;;;;4.50;1.83;;;;;;;-143.90;100.00;58478.06;5096435;28;20433;-82
2021/09/23 10:23:51;;;;;;;4.47;1.90;;;;;;;-143.90;100.00;58478.06;5091959;28;20409;-70
2021/09/23 10:26:19;;;;;;;6.13;2.10;;;;;;;-143.90;100.00;58478.06;5089194;28;20501;-79
2021/09/23 10:28:48;;;;;;;4.60;2.27;;;;;;;-143.90;100.00;58478.06;5089939;28;20398;-77
2021/09/23 10:31:19;;;;;;;5.17;2.30;;;;;;;-143.90;100.00;58478.06;5089441;28;20448;-79
2021/09/23 10:33:46;;;;;;;4.77;2.73;;;;;;;-143.90;100.00;58478.06;5090581;28;20418;-82
2021/09/23 10:36:13;;;;;;;6.63;2.40;;;;;;;-143.90;100.00;58478.06;5089910;28;20398;-76
2021/09/23 10:38:40;;;;;;;4.90;2.33;;;;;;;-143.90;100.00;58478.06;5089102;28;20776;-78
2021/09/23 10:41:07;;;;;;;5.37;2.40;;;;;;;-143.90;100.00;58478.06;5089533;28;20448;-83
2021/09/23 10:43:32;;;;;;;4.70;2.30;;;;;;;-143.90;100.00;58478.06;5095981;28;20467;-79
2021/09/23 10:45:59;;;;;;;7.27;2.67;;;;;;;-143.90;100.00;58478.06;5090214;28;20505;-76
2021/09/23 10:48:28;;;;;;;5.57;2.70;;;;;;;-143.90;100.00;58478.06;5089136;28;20170;-76
2021/09/23 10:50:53;;;;;;;4.57;2.20;;;;;;;-143.90;100.00;58478.06;5087907;28;20421;-76
2021/09/23 10:53:19;;;;;;;4.57;2.37;;;;;;;-143.90;100.00;58478.06;5089632;28;20406;-78
2021/09/23 10:55:45;;;;;;;5.53;1.87;;;;;;;-143.90;100.00;58478.06;5089430;28;20214;-74
2021/09/23 10:58:13;;;;;;;4.90;2.10;;;;;;;-143.90;100.00;58478.06;5089979;28;20184;-74
2021/09/23 11:00:39;;;;;;;4.03;2.13;;;;;;;-143.90;100.00;58478.06;5089488;28;20500;-71
2021/09/23 11:03:07;;;;;;;5.20;1.90;;;;;;;-143.90;100.00;58478.06;5096600;28;20970;-75